createdAt,value
2018-10-02T00:01:22.776Z,2.77
2018-10-02T00:03:50.922Z,3.20
2018-10-02T00:06:19.136Z,2.50
2018-10-02T00:08:47.260Z,4.10
2018-10-02T00:11:20.645Z,3.17
2018-10-02T00:13:54.040Z,2.73
2018-10-02T00:16:22.128Z,3.07
2018-10-02T00:18:50.352Z,2.27
2018-10-02T00:21:18.536Z,3.07
2018-10-02T00:23:46.626Z,3.23
2018-10-02T00:26:14.752Z,2.93
2018-10-02T00:28:42.845Z,2.80
2018-10-02T00:31:11.653Z,3.10
2018-10-02T00:33:39.972Z,3.80
2018-10-02T00:36:08.104Z,2.80
2018-10-02T00:38:36.228Z,2.97
2018-10-02T00:41:04.760Z,2.80
2018-10-02T00:43:32.787Z,3.23
2018-10-02T00:46:00.868Z,2.47
2018-10-02T00:48:28.980Z,3.20
2018-10-02T00:50:57.048Z,4.00
2018-10-02T00:53:25.128Z,2.93
2018-10-02T00:55:53.184Z,2.40
2018-10-02T00:58:21.264Z,2.90
2018-10-02T01:00:49.320Z,2.70
2018-10-02T01:03:17.388Z,2.40
2018-10-02T01:05:45.441Z,2.90
2018-10-02T01:08:13.519Z,2.70
2018-10-02T01:10:41.616Z,2.67
2018-10-02T01:13:09.687Z,3.10
2018-10-02T01:15:37.931Z,2.73
2018-10-02T01:18:06.641Z,2.90
2018-10-02T01:20:34.742Z,3.13
2018-10-02T01:23:03.072Z,3.20
2018-10-02T01:25:31.264Z,3.03
2018-10-02T01:27:59.320Z,3.53
2018-10-02T01:30:27.409Z,3.13
2018-10-02T01:32:55.487Z,2.87
2018-10-02T01:35:23.653Z,3.07
2018-10-02T01:37:51.823Z,2.40
2018-10-02T01:40:20.033Z,2.93
2018-10-02T01:42:48.088Z,2.77
2018-10-02T01:45:16.169Z,3.40
2018-10-02T01:47:44.216Z,2.67
2018-10-02T01:50:12.369Z,2.97
2018-10-02T01:52:40.708Z,2.50
2018-10-02T01:55:08.784Z,3.03
2018-10-02T01:57:36.856Z,3.20
2018-10-02T02:00:05.020Z,3.70
2018-10-02T02:02:33.189Z,3.03
2018-10-02T02:05:01.279Z,3.77
2018-10-02T02:07:29.437Z,3.40
2018-10-02T02:09:57.505Z,3.00
2018-10-02T02:12:25.568Z,3.30
2018-10-02T02:14:53.657Z,3.13
2018-10-02T02:17:21.754Z,3.40
2018-10-02T02:19:49.807Z,3.50
2018-10-02T02:22:17.965Z,3.20
2018-10-02T02:24:46.048Z,2.80
2018-10-02T02:27:14.100Z,3.57
2018-10-02T02:29:42.186Z,3.40
2018-10-02T02:32:10.244Z,3.70
2018-10-02T02:34:38.438Z,4.30
2018-10-02T02:37:06.764Z,3.67
2018-10-02T02:39:34.933Z,3.43
2018-10-02T02:42:03.352Z,3.20
2018-10-02T02:44:31.540Z,3.47
2018-10-02T02:47:05.039Z,3.57
2018-10-02T02:49:38.864Z,3.60
2018-10-02T02:52:07.056Z,3.20
2018-10-02T02:54:35.388Z,3.63
2018-10-02T02:57:03.468Z,3.60
2018-10-02T02:59:31.665Z,3.70
2018-10-02T03:01:59.721Z,3.30
2018-10-02T03:04:27.805Z,3.70
2018-10-02T03:06:55.860Z,4.90
2018-10-02T03:09:23.991Z,3.80
2018-10-02T03:11:52.124Z,4.27
2018-10-02T03:14:20.200Z,4.63
2018-10-02T03:16:48.240Z,4.87
2018-10-02T03:19:16.324Z,4.77
2018-10-02T03:21:44.534Z,4.37
2018-10-02T03:24:12.747Z,4.00
2018-10-02T03:26:40.809Z,4.27
2018-10-02T03:29:09.360Z,4.10
2018-10-02T03:31:37.444Z,4.10
2018-10-02T03:34:05.616Z,3.43
2018-10-02T03:36:33.700Z,3.90
2018-10-02T03:39:01.789Z,3.60
2018-10-02T03:41:29.861Z,3.77
2018-10-02T03:43:57.967Z,3.77
2018-10-02T03:46:26.089Z,3.60
2018-10-02T03:48:54.157Z,4.00
2018-10-02T03:51:22.461Z,3.90
2018-10-02T03:53:50.536Z,3.70
2018-10-02T03:56:18.650Z,3.87
2018-10-02T03:58:46.749Z,4.07
2018-10-02T04:01:14.841Z,3.30
2018-10-02T04:03:43.228Z,3.80
2018-10-02T04:06:11.300Z,4.30
2018-10-02T04:08:39.828Z,4.10
2018-10-02T04:11:08.436Z,3.63
2018-10-02T04:13:36.525Z,3.67
2018-10-02T04:16:04.590Z,4.63
2018-10-02T04:18:32.644Z,3.70
2018-10-02T04:21:00.856Z,3.43
2018-10-02T04:23:28.944Z,3.33
2018-10-02T04:25:57.001Z,3.77
2018-10-02T04:28:25.231Z,3.80
2018-10-02T04:30:53.450Z,3.80
2018-10-02T04:33:21.644Z,3.40
2018-10-02T04:35:49.690Z,4.00
2018-10-02T04:38:17.776Z,4.50
2018-10-02T04:40:45.847Z,3.77
2018-10-02T04:43:13.928Z,4.43
2018-10-02T04:45:42.292Z,4.53
2018-10-02T04:48:10.695Z,4.27
2018-10-02T04:50:38.828Z,4.03
2018-10-02T04:53:06.892Z,4.47
2018-10-02T04:55:35.140Z,4.20
2018-10-02T04:58:03.423Z,4.50
2018-10-02T05:00:31.516Z,5.40
2018-10-02T05:02:59.608Z,4.70
2018-10-02T05:05:27.702Z,6.07
2018-10-02T05:07:55.794Z,5.57
2018-10-02T05:10:23.876Z,5.57
2018-10-02T05:12:52.043Z,4.90
2018-10-02T05:15:20.169Z,4.53
2018-10-02T05:17:48.251Z,6.13
2018-10-02T05:20:16.333Z,5.27
2018-10-02T05:22:44.516Z,7.30
2018-10-02T05:25:13.081Z,7.10
2018-10-02T05:27:41.341Z,5.50
2018-10-02T05:30:09.660Z,5.30
2018-10-02T05:32:37.864Z,5.63
2018-10-02T05:35:06.023Z,4.80
2018-10-02T05:37:34.293Z,4.97
2018-10-02T05:40:02.734Z,5.77
2018-10-02T05:42:30.869Z,5.77
2018-10-02T05:44:59.196Z,5.40
2018-10-02T05:47:34.061Z,5.70
2018-10-02T05:50:02.245Z,6.60
2018-10-02T05:52:30.671Z,5.73
2018-10-02T05:54:58.716Z,5.10
2018-10-02T05:57:28.107Z,4.93
2018-10-02T05:59:56.460Z,4.40
2018-10-02T06:02:27.008Z,4.80
2018-10-02T06:04:55.356Z,5.03
2018-10-02T06:07:23.525Z,4.60
2018-10-02T06:09:51.649Z,6.00
2018-10-02T06:12:19.917Z,5.20
2018-10-02T06:14:48.013Z,5.53
2018-10-02T06:17:16.449Z,6.10
2018-10-02T06:19:44.605Z,5.60
2018-10-02T06:22:12.715Z,8.10
2018-10-02T06:24:41.113Z,6.60
2018-10-02T06:27:09.340Z,6.60
2018-10-02T06:29:37.417Z,6.30
2018-10-02T06:32:06.201Z,6.00
2018-10-02T06:34:34.282Z,5.87
2018-10-02T06:37:02.344Z,6.13
2018-10-02T06:39:31.661Z,6.83
2018-10-02T06:42:00.453Z,5.90
2018-10-02T06:44:28.979Z,6.27
2018-10-02T06:46:57.249Z,6.20
2018-10-02T06:49:25.552Z,5.63
2018-10-02T06:51:53.992Z,5.83
2018-10-02T06:54:22.549Z,6.03
2018-10-02T06:56:50.673Z,5.63
2018-10-02T06:59:19.058Z,5.00
2018-10-02T07:01:47.572Z,4.93
2018-10-02T07:04:15.672Z,4.03
2018-10-02T07:06:43.812Z,5.13
2018-10-02T07:09:12.066Z,4.80
2018-10-02T07:11:40.909Z,3.90
2018-10-02T07:14:09.696Z,5.20
2018-10-02T07:16:37.798Z,4.80
2018-10-02T07:19:05.949Z,4.40
2018-10-02T07:21:34.316Z,4.60
2018-10-02T07:24:02.459Z,4.00
2018-10-02T07:26:30.649Z,4.60
2018-10-02T07:28:58.877Z,3.90
2018-10-02T07:31:27.009Z,4.17
2018-10-02T07:33:55.159Z,3.87
2018-10-02T07:36:23.411Z,4.10
2018-10-02T07:38:51.787Z,4.00
2018-10-02T07:41:20.014Z,3.60
2018-10-02T07:43:48.127Z,3.73
2018-10-02T07:46:16.276Z,4.70
2018-10-02T07:48:44.351Z,3.67
2018-10-02T07:51:12.517Z,3.80
2018-10-02T07:53:40.674Z,3.30
2018-10-02T07:56:08.990Z,3.53
2018-10-02T07:58:37.048Z,3.47
2018-10-02T08:01:05.156Z,3.20
2018-10-02T08:03:33.208Z,3.20
2018-10-02T08:06:01.431Z,4.33
2018-10-02T08:08:29.709Z,6.17
2018-10-02T08:10:58.370Z,3.13
2018-10-02T08:13:26.486Z,5.00
2018-10-02T08:15:54.766Z,3.53
2018-10-02T08:18:22.903Z,3.90
2018-10-02T08:20:50.986Z,4.37
2018-10-02T08:23:19.251Z,3.60
2018-10-02T08:25:48.104Z,4.33
2018-10-02T08:28:17.493Z,3.87
2018-10-02T08:30:45.773Z,3.70
2018-10-02T08:33:13.943Z,4.93
2018-10-02T08:35:42.251Z,3.80
2018-10-02T08:38:11.163Z,5.70
2018-10-02T08:40:39.301Z,4.30
2018-10-02T08:43:07.422Z,4.00
2018-10-02T08:45:35.780Z,3.70
2018-10-02T08:48:04.060Z,5.33
2018-10-02T08:50:32.430Z,4.10
2018-10-02T08:53:00.625Z,3.93
2018-10-02T08:55:28.704Z,4.40
2018-10-02T08:57:57.065Z,4.40
2018-10-02T09:00:25.182Z,4.50
2018-10-02T09:02:53.293Z,4.60
2018-10-02T09:05:21.413Z,3.80
2018-10-02T09:07:49.510Z,4.00
2018-10-02T09:10:17.653Z,3.27
2018-10-02T09:12:45.796Z,3.47
2018-10-02T09:15:14.039Z,4.83
2018-10-02T09:17:42.260Z,3.77
2018-10-02T09:20:10.409Z,4.30
2018-10-02T09:22:38.550Z,4.13
2018-10-02T09:25:06.715Z,3.70
2018-10-02T09:27:35.060Z,3.80
2018-10-02T09:30:09.158Z,3.30
2018-10-02T09:32:42.770Z,3.50
2018-10-02T09:35:16.396Z,2.77
2018-10-02T09:37:50.026Z,2.83
2018-10-02T09:40:23.397Z,3.03
2018-10-02T09:42:57.328Z,3.27
2018-10-02T09:45:25.709Z,3.87
2018-10-02T09:47:54.049Z,3.70
2018-10-02T09:50:22.226Z,3.40
2018-10-02T09:52:50.539Z,3.10
2018-10-02T09:55:18.649Z,3.00
2018-10-02T09:57:46.759Z,2.80
2018-10-02T10:00:21.047Z,3.30
2018-10-02T10:02:53.686Z,2.77
2018-10-02T10:05:21.929Z,2.30
2018-10-02T10:07:50.034Z,2.73
2018-10-02T10:10:18.172Z,2.50
2018-10-02T10:12:46.273Z,2.13
2018-10-02T10:15:14.339Z,2.40
2018-10-02T10:17:42.508Z,2.33
2018-10-02T10:20:10.764Z,2.37
2018-10-02T10:22:38.891Z,2.37
2018-10-02T10:25:07.468Z,2.43
2018-10-02T10:27:35.634Z,2.20
2018-10-02T10:30:03.779Z,2.40
2018-10-02T10:32:31.841Z,2.43
2018-10-02T10:34:59.944Z,2.50
2018-10-02T10:37:28.293Z,2.10
2018-10-02T10:39:56.388Z,3.43
2018-10-02T10:42:24.664Z,2.50
2018-10-02T10:44:53.141Z,2.70
2018-10-02T10:47:21.313Z,3.00
2018-10-02T10:49:49.884Z,3.20
2018-10-02T10:52:18.209Z,2.93
2018-10-02T10:54:51.977Z,2.73
2018-10-02T10:57:20.061Z,3.00
2018-10-02T10:59:48.148Z,2.60
2018-10-02T11:02:16.441Z,2.93
2018-10-02T11:04:44.686Z,3.50
2018-10-02T11:07:12.885Z,3.13
2018-10-02T11:09:41.029Z,2.27
2018-10-02T11:12:09.129Z,2.87
2018-10-02T11:14:37.214Z,2.80
2018-10-02T11:17:05.948Z,2.63
2018-10-02T11:19:34.140Z,2.63
2018-10-02T11:22:02.440Z,2.33
2018-10-02T11:24:30.527Z,2.10
2018-10-02T11:26:58.620Z,2.47
2018-10-02T11:29:27.271Z,2.47
2018-10-02T11:31:55.645Z,3.37
2018-10-02T11:34:23.769Z,2.70
2018-10-02T11:36:51.909Z,2.10
2018-10-02T11:39:20.087Z,2.10
2018-10-02T11:41:48.527Z,1.80
2018-10-02T11:44:16.754Z,2.13
2018-10-02T11:46:44.908Z,2.67
2018-10-02T11:49:13.146Z,1.57
2018-10-02T11:51:41.493Z,1.90
2018-10-02T11:54:09.590Z,1.83
2018-10-02T11:56:37.693Z,2.10
2018-10-02T11:59:06.188Z,1.90
2018-10-02T12:01:34.257Z,1.60
2018-10-02T12:04:02.321Z,2.00
2018-10-02T12:06:30.815Z,2.60
2018-10-02T12:08:58.939Z,2.40
2018-10-02T12:11:27.210Z,2.40
2018-10-02T12:13:55.674Z,2.57
2018-10-02T12:16:23.858Z,1.57
2018-10-02T12:18:52.159Z,1.97
2018-10-02T12:21:20.416Z,1.80
2018-10-02T12:23:48.683Z,2.20
2018-10-02T12:26:16.954Z,1.60
2018-10-02T12:28:45.476Z,1.90
2018-10-02T12:31:13.617Z,1.47
2018-10-02T12:33:41.912Z,2.03
2018-10-02T12:36:10.085Z,2.10
2018-10-02T12:38:38.307Z,1.70
2018-10-02T12:41:06.714Z,1.90
2018-10-02T12:43:34.866Z,2.17
2018-10-02T12:46:03.034Z,2.03
2018-10-02T12:48:31.473Z,1.73
2018-10-02T12:50:59.628Z,1.60
2018-10-02T12:53:27.672Z,3.20
2018-10-02T12:55:55.805Z,1.60
2018-10-02T12:58:23.939Z,1.47
2018-10-02T13:00:52.052Z,1.73
2018-10-02T13:03:20.233Z,1.70
2018-10-02T13:05:48.344Z,1.60
2018-10-02T13:08:16.448Z,1.77
2018-10-02T13:10:44.729Z,2.10
2018-10-02T13:13:12.820Z,1.97
2018-10-02T13:15:41.168Z,1.90
2018-10-02T13:18:09.422Z,1.50
2018-10-02T13:20:37.595Z,2.00
2018-10-02T13:23:05.701Z,1.50
2018-10-02T13:25:33.892Z,1.47
2018-10-02T13:28:02.059Z,2.00
2018-10-02T13:30:30.282Z,2.50
2018-10-02T13:32:58.491Z,1.93
2018-10-02T13:35:26.674Z,1.97
2018-10-02T13:37:54.855Z,2.47
2018-10-02T13:40:23.140Z,1.67
2018-10-02T13:42:51.375Z,1.97
2018-10-02T13:45:19.557Z,1.90
2018-10-02T13:47:47.734Z,1.60
2018-10-02T13:50:15.829Z,1.67
2018-10-02T13:52:45.677Z,2.07
2018-10-02T13:55:13.838Z,1.40
2018-10-02T13:57:42.477Z,3.17
2018-10-02T14:00:10.642Z,2.67
2018-10-02T14:02:38.764Z,2.47
2018-10-02T14:05:07.062Z,2.27
2018-10-02T14:07:35.223Z,1.77
2018-10-02T14:10:03.401Z,1.60
2018-10-02T14:12:31.477Z,1.70
2018-10-02T14:14:59.567Z,2.57
2018-10-02T14:17:27.902Z,1.90
2018-10-02T14:19:55.957Z,1.70
2018-10-02T14:22:24.083Z,1.87
2018-10-02T14:24:52.249Z,2.50
2018-10-02T14:27:20.509Z,2.20
2018-10-02T14:29:48.726Z,2.20
2018-10-02T14:32:16.821Z,2.80
2018-10-02T14:34:44.936Z,2.43
2018-10-02T14:37:13.601Z,2.00
2018-10-02T14:39:41.819Z,2.77
2018-10-02T14:42:09.889Z,2.93
2018-10-02T14:44:38.004Z,3.00
2018-10-02T14:47:06.221Z,2.30
2018-10-02T14:49:34.489Z,2.57
2018-10-02T14:52:02.781Z,2.50
2018-10-02T14:54:30.952Z,2.90
2018-10-02T14:56:59.164Z,3.10
2018-10-02T14:59:27.336Z,2.57
2018-10-02T15:01:55.574Z,2.70
2018-10-02T15:04:23.676Z,3.07
2018-10-02T15:06:51.800Z,2.53
2018-10-02T15:09:19.876Z,2.77
2018-10-02T15:11:48.183Z,2.60
2018-10-02T15:14:16.309Z,2.50
2018-10-02T15:16:44.413Z,3.33
2018-10-02T15:19:12.510Z,2.60
2018-10-02T15:21:40.628Z,3.67
2018-10-02T15:24:08.889Z,2.87
2018-10-02T15:26:37.104Z,3.57
2018-10-02T15:29:05.449Z,2.60
2018-10-02T15:31:33.540Z,2.60
2018-10-02T15:34:02.161Z,2.10
2018-10-02T15:36:30.424Z,2.20
2018-10-02T15:38:58.618Z,2.10
2018-10-02T15:41:26.761Z,2.80
2018-10-02T15:43:54.873Z,2.40
2018-10-02T15:46:22.967Z,2.70
2018-10-02T15:48:51.085Z,2.10
2018-10-02T15:51:19.373Z,2.33
2018-10-02T15:53:47.443Z,2.33
2018-10-02T15:56:15.569Z,2.33
2018-10-02T15:58:43.731Z,2.40
2018-10-02T16:01:11.929Z,2.97
2018-10-02T16:03:40.122Z,2.50
2018-10-02T16:06:08.428Z,2.30
2018-10-02T16:08:36.714Z,2.53
2018-10-02T16:11:04.862Z,2.27
2018-10-02T16:13:33.110Z,2.17
2018-10-02T16:16:01.640Z,2.00
2018-10-02T16:18:29.791Z,2.70
2018-10-02T16:20:58.212Z,2.40
2018-10-02T16:23:26.335Z,2.10
2018-10-02T16:25:54.462Z,2.87
2018-10-02T16:28:22.562Z,2.07
2018-10-02T16:30:50.717Z,1.87
2018-10-02T16:33:18.807Z,2.00
2018-10-02T16:35:46.977Z,2.00
2018-10-02T16:38:15.137Z,2.50
2018-10-02T16:40:43.288Z,2.23
2018-10-02T16:43:11.685Z,1.93
2018-10-02T16:45:39.807Z,2.17
2018-10-02T16:48:07.912Z,2.13
2018-10-02T16:50:36.213Z,2.47
2018-10-02T16:53:04.394Z,1.80
2018-10-02T16:55:32.653Z,2.00
2018-10-02T16:58:00.864Z,2.13
2018-10-02T17:00:29.094Z,2.20
2018-10-02T17:02:57.210Z,1.97
2018-10-02T17:05:25.337Z,1.87
2018-10-02T17:07:53.554Z,1.87
2018-10-02T17:10:21.741Z,1.93
2018-10-02T17:12:49.853Z,2.03
2018-10-02T17:15:18.053Z,2.40
2018-10-02T17:17:46.229Z,1.80
2018-10-02T17:20:14.528Z,1.77
2018-10-02T17:22:42.593Z,2.27
2018-10-02T17:25:10.693Z,1.77
2018-10-02T17:27:38.765Z,1.80
2018-10-02T17:30:06.971Z,2.07
2018-10-02T17:32:35.075Z,2.57
2018-10-02T17:35:03.509Z,1.90
2018-10-02T17:37:31.589Z,2.13
2018-10-02T17:39:59.768Z,1.70
2018-10-02T17:42:28.834Z,2.70
2018-10-02T17:44:56.918Z,1.70
2018-10-02T17:47:25.001Z,2.53
2018-10-02T17:49:53.073Z,2.37
2018-10-02T17:52:21.179Z,2.20
2018-10-02T17:54:49.274Z,1.90
2018-10-02T17:57:17.521Z,1.80
2018-10-02T17:59:45.666Z,2.10
2018-10-02T18:02:13.802Z,1.97
2018-10-02T18:04:41.950Z,1.90
2018-10-02T18:07:10.220Z,1.80
2018-10-02T18:09:38.304Z,2.03
2018-10-02T18:12:06.477Z,1.90
2018-10-02T18:14:34.643Z,1.60
2018-10-02T18:17:02.848Z,1.80
2018-10-02T18:19:30.941Z,1.87
2018-10-02T18:21:59.102Z,1.90
2018-10-02T18:24:27.211Z,2.10
2018-10-02T18:26:55.461Z,1.77
2018-10-02T18:29:23.515Z,1.93
2018-10-02T18:31:51.608Z,1.83
2018-10-02T18:34:19.694Z,1.90
2018-10-02T18:36:47.842Z,2.27
2018-10-02T18:39:15.951Z,2.10
2018-10-02T18:41:44.050Z,2.57
2018-10-02T18:44:12.189Z,1.97
2018-10-02T18:46:40.312Z,2.10
2018-10-02T18:49:08.402Z,1.97
2018-10-02T18:51:36.678Z,1.80
2018-10-02T18:54:04.784Z,2.00
2018-10-02T18:56:32.932Z,1.80
2018-10-02T18:59:01.217Z,1.90
2018-10-02T19:01:29.343Z,2.27
2018-10-02T19:03:57.421Z,1.70
2018-10-02T19:06:25.589Z,2.30
2018-10-02T19:08:58.925Z,2.47
2018-10-02T19:11:32.352Z,2.07
2018-10-02T19:14:00.559Z,1.93
2018-10-02T19:16:33.399Z,2.17
2018-10-02T19:19:01.648Z,1.90
2018-10-02T19:21:30.210Z,2.60
2018-10-02T19:23:58.466Z,2.10
2018-10-02T19:26:28.123Z,2.00
2018-10-02T19:28:56.308Z,2.53
2018-10-02T19:31:29.661Z,2.50
2018-10-02T19:33:58.492Z,2.10
2018-10-02T19:36:26.688Z,2.20
2018-10-02T19:38:57.498Z,2.23
2018-10-02T19:41:26.502Z,2.47
2018-10-02T19:43:55.149Z,2.43
2018-10-02T19:46:55.614Z,2.70
2018-10-02T19:49:26.110Z,2.30
2018-10-02T19:51:59.602Z,2.60
2018-10-02T19:54:27.708Z,2.07
2018-10-02T19:56:56.058Z,2.30
2018-10-02T19:59:24.444Z,2.00
2018-10-02T20:01:52.981Z,2.30
2018-10-02T20:04:21.167Z,2.40
2018-10-02T20:06:49.409Z,2.50
2018-10-02T20:09:17.608Z,2.00
2018-10-02T20:11:45.913Z,2.57
2018-10-02T20:14:14.066Z,2.30
2018-10-02T20:16:42.178Z,2.07
2018-10-02T20:19:10.288Z,2.00
2018-10-02T20:21:38.464Z,2.33
2018-10-02T20:24:06.595Z,2.37
2018-10-02T20:26:34.685Z,2.37
2018-10-02T20:29:03.131Z,2.60
2018-10-02T20:31:33.063Z,2.00
2018-10-02T20:34:01.178Z,2.13
2018-10-02T20:36:29.299Z,2.30
2018-10-02T20:38:57.633Z,2.77
2018-10-02T20:41:25.689Z,2.80
2018-10-02T20:43:53.810Z,2.43
2018-10-02T20:46:21.920Z,2.67
2018-10-02T20:48:50.042Z,2.47
2018-10-02T20:51:18.342Z,2.50
2018-10-02T20:53:46.439Z,2.20
2018-10-02T20:56:14.560Z,2.73
2018-10-02T20:58:42.656Z,4.10
2018-10-02T21:01:10.789Z,2.50
2018-10-02T21:03:39.024Z,2.47
2018-10-02T21:06:07.208Z,2.77
2018-10-02T21:08:35.356Z,2.70
2018-10-02T21:11:03.458Z,2.80
2018-10-02T21:13:31.553Z,2.60
2018-10-02T21:15:59.709Z,3.17
2018-10-02T21:18:27.895Z,2.60
2018-10-02T21:20:56.427Z,2.90
2018-10-02T21:23:25.006Z,3.10
2018-10-02T21:25:53.115Z,2.80
2018-10-02T21:28:21.449Z,2.80
2018-10-02T21:30:49.531Z,2.83
2018-10-02T21:33:17.632Z,3.13
2018-10-02T21:35:45.762Z,2.53
2018-10-02T21:38:13.892Z,2.60
2018-10-02T21:40:41.984Z,2.90
2018-10-02T21:43:10.181Z,3.53
2018-10-02T21:45:38.649Z,3.27
2018-10-02T21:48:06.767Z,3.17
2018-10-02T21:50:34.861Z,3.20
2018-10-02T21:53:02.935Z,2.90
2018-10-02T21:55:31.141Z,2.27
2018-10-02T21:57:59.224Z,2.93
2018-10-02T22:00:29.008Z,3.70
2018-10-02T22:02:57.128Z,2.90
2018-10-02T22:05:25.189Z,2.57
2018-10-02T22:07:53.351Z,2.90
2018-10-02T22:10:21.418Z,2.77
2018-10-02T22:12:49.558Z,2.50
2018-10-02T22:15:17.678Z,2.50
2018-10-02T22:17:45.925Z,3.23
2018-10-02T22:20:14.045Z,2.53
2018-10-02T22:22:42.138Z,2.63
2018-10-02T22:25:10.217Z,2.73
2018-10-02T22:27:38.285Z,3.10
2018-10-02T22:30:07.505Z,3.20
2018-10-02T22:32:35.605Z,2.60
2018-10-02T22:35:03.743Z,3.10
2018-10-02T22:37:31.845Z,2.93
2018-10-02T22:39:59.914Z,2.93
2018-10-02T22:42:27.985Z,2.67
2018-10-02T22:44:56.085Z,2.73
2018-10-02T22:47:24.132Z,2.30
2018-10-02T22:49:52.303Z,2.40
2018-10-02T22:52:20.773Z,3.07
2018-10-02T22:54:48.873Z,2.83
2018-10-02T22:57:16.945Z,2.80
2018-10-02T22:59:45.009Z,2.60
2018-10-02T23:02:13.097Z,2.67
2018-10-02T23:04:41.184Z,2.53
2018-10-02T23:07:09.295Z,2.63
2018-10-02T23:09:37.681Z,2.90
2018-10-02T23:12:06.072Z,2.90
2018-10-02T23:14:34.155Z,2.37
2018-10-02T23:17:02.425Z,3.17
2018-10-02T23:19:30.521Z,2.93
2018-10-02T23:21:58.649Z,2.13
2018-10-02T23:24:26.753Z,1.90
2018-10-02T23:26:54.944Z,2.10
2018-10-02T23:29:23.108Z,2.90
2018-10-02T23:31:51.167Z,2.30
2018-10-02T23:34:19.257Z,2.00
2018-10-02T23:36:47.386Z,1.90
2018-10-02T23:39:15.524Z,2.67
2018-10-02T23:41:43.611Z,2.50
2018-10-02T23:44:11.724Z,2.10
2018-10-02T23:46:39.795Z,2.10
2018-10-02T23:49:07.884Z,2.00
2018-10-02T23:51:36.188Z,2.20
2018-10-02T23:54:04.248Z,2.30
2018-10-02T23:56:32.397Z,2.93
2018-10-02T23:59:00.485Z,2.10
